Time;durP1;ratioP1;P1;durP2;ratioP2;P2;SDS_P1;SDS_P2;PMS_P1;PMS_P2;Temp;Humidity;BMP_temperature;BMP_pressure;BME280_temperature;BME280_humidity;BME280_pressure;Samples;Min_cycle;Max_cycle;Signal;HPM_P1;HPM_P2
2023/08/13 00:01:11;;;;;;;5.97;5.38;;;23.00;99.90;;;;;;5166106;28;20026;-75
2023/08/13 00:03:42;;;;;;;9.60;5.30;;;23.00;99.90;;;;;;5150002;28;20086;-75
2023/08/13 00:06:12;;;;;;;7.00;5.68;;;23.10;99.90;;;;;;5170348;28;20030;-77
2023/08/13 00:08:43;;;;;;;6.32;5.25;;;23.10;99.90;;;;;;5170519;28;20027;-76
2023/08/13 00:11:14;;;;;;;8.32;5.20;;;23.00;99.90;;;;;;5170386;28;20360;-77
2023/08/13 00:13:46;;;;;;;9.93;5.47;;;23.10;99.90;;;;;;5170612;28;20842;-76
2023/08/13 00:16:16;;;;;;;7.75;5.35;;;23.10;99.90;;;;;;5170304;28;20482;-78
2023/08/13 00:18:47;;;;;;;8.45;5.15;;;23.00;99.90;;;;;;5170587;28;20029;-76
2023/08/13 00:21:18;;;;;;;9.73;5.80;;;23.00;99.90;;;;;;5170228;28;20382;-78
2023/08/13 00:23:50;;;;;;;9.55;5.45;;;22.90;99.90;;;;;;5152413;28;20050;-76
2023/08/13 00:26:21;;;;;;;9.45;5.85;;;23.10;99.90;;;;;;5152587;28;20026;-76
2023/08/13 00:28:52;;;;;;;10.48;6.18;;;22.90;99.90;;;;;;5169899;28;20026;-77
2023/08/13 00:31:22;;;;;;;7.97;5.35;;;23.10;99.90;;;;;;5169758;28;20577;-79
2023/08/13 00:33:53;;;;;;;11.35;5.63;;;23.00;99.90;;;;;;5169799;28;20027;-76
2023/08/13 00:36:27;;;;;;;11.38;5.38;;;23.00;99.90;;;;;;5169404;28;20061;-77
2023/08/13 00:39:05;;;;;;;9.98;5.63;;;23.00;99.90;;;;;;5169415;28;20379;-76
2023/08/13 00:41:36;;;;;;;6.10;5.10;;;22.90;99.90;;;;;;5152338;28;20038;-75
2023/08/13 00:44:07;;;;;;;11.68;6.20;;;23.00;99.90;;;;;;5170120;28;20338;-76
2023/08/13 00:46:38;;;;;;;9.68;5.60;;;23.00;99.90;;;;;;5170176;28;20027;-76
2023/08/13 00:49:09;;;;;;;7.85;5.80;;;22.90;99.90;;;;;;5169733;28;20022;-76
2023/08/13 00:51:40;;;;;;;7.72;5.65;;;23.00;99.90;;;;;;5169479;28;20030;-78
2023/08/13 00:54:12;;;;;;;8.60;6.07;;;23.00;99.90;;;;;;5169469;28;20018;-78
2023/08/13 00:56:46;;;;;;;10.52;5.85;;;23.10;99.90;;;;;;5169446;28;20158;-76
2023/08/13 00:59:19;;;;;;;10.20;5.63;;;23.00;99.90;;;;;;5151724;28;20160;-78
2023/08/13 01:01:50;;;;;;;23.35;6.10;;;23.00;99.90;;;;;;5151911;28;20557;-76
2023/08/13 01:04:21;;;;;;;8.88;5.57;;;23.10;99.90;;;;;;5169360;28;20486;-77
2023/08/13 01:07:02;;;;;;;10.32;5.95;;;23.20;99.90;;;;;;5151921;28;20030;-78
2023/08/13 01:09:45;;;;;;;9.20;5.93;;;23.10;99.90;;;;;;5151818;28;20057;-78
2023/08/13 01:12:30;;;;;;;9.45;5.88;;;23.00;99.90;;;;;;5169361;28;20359;-77
2023/08/13 01:15:18;;;;;;;7.38;5.25;;;23.10;99.90;;;;;;5168281;28;20065;-77
2023/08/13 01:17:52;;;;;;;6.40;5.68;;;23.10;99.90;;;;;;5169388;28;20478;-76
2023/08/13 01:20:35;;;;;;;7.07;5.65;;;23.10;99.90;;;;;;5169033;28;20081;-75
2023/08/13 01:23:06;;;;;;;9.73;5.53;;;23.00;99.90;;;;;;5168969;28;20022;-76
2023/08/13 01:25:38;;;;;;;8.63;5.70;;;23.00;99.90;;;;;;5151529;28;20089;-75
2023/08/13 01:28:14;;;;;;;8.18;5.13;;;23.10;99.90;;;;;;5168764;28;20030;-75
2023/08/13 01:30:57;;;;;;;10.13;5.70;;;23.10;99.90;;;;;;5151297;28;20054;-77
2023/08/13 01:33:35;;;;;;;9.15;5.57;;;23.00;99.90;;;;;;5168695;28;20084;-76
2023/08/13 01:36:06;;;;;;;8.93;6.28;;;23.10;99.90;;;;;;5168515;28;20026;-76
2023/08/13 01:38:38;;;;;;;11.27;6.30;;;22.90;99.90;;;;;;5168120;28;20031;-75
2023/08/13 01:41:08;;;;;;;10.05;6.03;;;23.00;99.90;;;;;;5168753;28;20022;-76
2023/08/13 01:43:39;;;;;;;6.43;5.53;;;23.10;99.90;;;;;;5168567;28;20750;-76
2023/08/13 01:46:10;;;;;;;10.10;5.30;;;23.10;99.90;;;;;;5168772;28;20389;-76
2023/08/13 01:48:41;;;;;;;7.32;5.55;;;23.10;99.90;;;;;;5168503;28;20022;-78
2023/08/13 01:51:12;;;;;;;7.78;5.70;;;23.10;99.90;;;;;;5168335;28;20030;-77
2023/08/13 01:53:43;;;;;;;12.18;6.60;;;23.10;99.90;;;;;;5168471;28;20033;-77
2023/08/13 01:56:13;;;;;;;9.45;5.72;;;23.10;99.90;;;;;;5167860;28;20054;-76
2023/08/13 01:58:44;;;;;;;9.00;5.50;;;23.10;99.90;;;;;;5150911;28;20041;-76
2023/08/13 02:01:15;;;;;;;7.60;4.95;;;23.00;99.90;;;;;;5167888;28;20033;-77
2023/08/13 02:03:46;;;;;;;7.97;5.00;;;23.00;99.90;;;;;;5168169;28;20536;-76
2023/08/13 02:06:17;;;;;;;7.15;5.70;;;23.00;99.90;;;;;;5167661;28;20585;-75
2023/08/13 02:08:48;;;;;;;9.20;5.38;;;23.00;99.90;;;;;;5150858;28;20061;-76
2023/08/13 02:11:19;;;;;;;7.47;4.60;;;23.10;99.90;;;;;;5168377;28;20107;-77
2023/08/13 02:13:49;;;;;;;7.82;4.90;;;23.00;99.90;;;;;;5167979;28;20029;-77
2023/08/13 02:16:21;;;;;;;6.53;4.50;;;23.10;99.90;;;;;;5167913;28;20027;-75
2023/08/13 02:18:52;;;;;;;7.63;4.70;;;23.00;99.90;;;;;;5168203;28;20488;-76
2023/08/13 02:21:24;;;;;;;7.75;4.25;;;23.00;99.90;;;;;;5167864;28;20022;-75
2023/08/13 02:23:55;;;;;;;7.18;4.60;;;23.10;99.90;;;;;;5150491;28;20038;-76
2023/08/13 02:26:26;;;;;;;8.35;4.47;;;23.00;99.90;;;;;;5167522;28;20398;-76
2023/08/13 02:28:57;;;;;;;6.35;4.05;;;23.00;99.90;;;;;;5167571;28;20057;-77
2023/08/13 02:31:28;;;;;;;7.32;3.83;;;23.10;99.90;;;;;;5167642;28;20046;-78
2023/08/13 02:33:59;;;;;;;6.82;4.15;;;23.00;99.90;;;;;;5149902;28;20046;-77
2023/08/13 02:36:29;;;;;;;6.25;3.78;;;22.90;99.90;;;;;;5136961;28;20035;-76
2023/08/13 02:39:00;;;;;;;5.53;3.92;;;22.90;99.90;;;;;;5147382;28;20027;-76
2023/08/13 02:41:31;;;;;;;6.13;3.88;;;23.00;99.90;;;;;;5147349;28;20027;-76
2023/08/13 02:44:02;;;;;;;6.43;3.70;;;23.00;99.90;;;;;;5152052;28;20023;-78
2023/08/13 02:46:33;;;;;;;8.68;4.13;;;23.00;99.90;;;;;;5188046;28;20109;-78
2023/08/13 02:49:04;;;;;;;5.10;3.50;;;23.00;99.90;;;;;;5187734;28;20018;-76
2023/08/13 02:51:35;;;;;;;7.57;4.25;;;23.00;99.90;;;;;;5173631;28;20054;-76
2023/08/13 02:54:06;;;;;;;6.88;4.30;;;22.90;99.90;;;;;;5167725;28;20033;-76
2023/08/13 02:56:37;;;;;;;9.43;4.45;;;23.10;99.90;;;;;;5165698;28;20042;-78
2023/08/13 02:59:09;;;;;;;5.78;4.07;;;23.10;99.90;;;;;;5166943;28;20562;-76
2023/08/13 03:01:40;;;;;;;7.55;4.85;;;23.10;99.90;;;;;;5167056;28;20038;-76
2023/08/13 03:04:10;;;;;;;8.23;4.13;;;23.00;99.90;;;;;;5149725;28;20089;-76
2023/08/13 03:06:41;;;;;;;5.65;4.25;;;23.10;99.90;;;;;;5165722;28;20399;-77
2023/08/13 03:09:20;;;;;;;7.22;4.70;;;23.10;99.90;;;;;;5166911;28;20058;-78
2023/08/13 03:11:50;;;;;;;8.13;4.43;;;23.00;99.90;;;;;;5167288;28;20029;-76
2023/08/13 03:14:21;;;;;;;5.63;4.30;;;23.00;99.90;;;;;;5166823;28;20022;-76
2023/08/13 03:16:52;;;;;;;9.43;4.55;;;23.00;99.90;;;;;;5166691;28;20035;-76
2023/08/13 03:19:23;;;;;;;6.85;4.15;;;23.00;99.90;;;;;;5149290;28;20456;-77
2023/08/13 03:21:54;;;;;;;9.20;4.30;;;23.00;99.90;;;;;;5149278;28;20049;-75
2023/08/13 03:24:25;;;;;;;5.63;4.38;;;23.10;99.90;;;;;;5149212;28;20026;-76
2023/08/13 03:26:56;;;;;;;7.18;4.53;;;23.10;99.90;;;;;;5149124;28;20026;-78
2023/08/13 03:29:27;;;;;;;8.57;4.18;;;23.00;99.90;;;;;;5166484;28;20038;-77
2023/08/13 03:31:58;;;;;;;8.98;4.25;;;23.10;99.90;;;;;;5149452;28;20038;-76
2023/08/13 03:34:28;;;;;;;8.70;4.50;;;23.10;99.90;;;;;;5166572;28;20032;-76
2023/08/13 03:36:59;;;;;;;4.80;4.07;;;23.10;99.90;;;;;;5148466;28;20045;-76
2023/08/13 03:39:30;;;;;;;7.65;4.35;;;23.10;99.90;;;;;;5145851;28;20022;-78
2023/08/13 03:42:01;;;;;;;5.32;4.40;;;23.10;99.90;;;;;;5146598;28;20360;-79
2023/08/13 03:44:32;;;;;;;7.88;4.40;;;23.10;99.90;;;;;;5146648;28;20380;-78
2023/08/13 03:47:03;;;;;;;7.35;4.80;;;23.10;99.90;;;;;;5146330;28;20035;-77
2023/08/13 03:49:34;;;;;;;6.28;4.43;;;23.10;99.90;;;;;;5146345;28;20027;-76
2023/08/13 03:52:05;;;;;;;7.03;4.15;;;23.20;99.90;;;;;;5146853;28;20073;-76
2023/08/13 03:54:36;;;;;;;7.60;4.18;;;23.20;99.90;;;;;;5129197;28;20027;-77
2023/08/13 03:57:07;;;;;;;10.25;4.60;;;23.20;99.90;;;;;;5128463;28;20557;-76
2023/08/13 03:59:38;;;;;;;9.18;4.85;;;23.20;99.90;;;;;;5145762;28;20042;-76
2023/08/13 04:02:09;;;;;;;7.30;4.38;;;23.20;99.90;;;;;;5146218;28;20701;-76
2023/08/13 04:04:39;;;;;;;6.70;4.50;;;23.20;99.90;;;;;;5146316;28;20034;-77
2023/08/13 04:07:10;;;;;;;6.88;4.68;;;23.20;99.90;;;;;;5145805;28;20530;-76
2023/08/13 04:09:41;;;;;;;8.20;5.07;;;23.30;99.90;;;;;;5146262;28;20452;-76
2023/08/13 04:12:12;;;;;;;7.07;5.15;;;23.30;99.90;;;;;;5146434;28;20086;-79
2023/08/13 04:14:43;;;;;;;9.18;5.40;;;23.30;99.90;;;;;;5146289;28;20494;-77
2023/08/13 04:17:14;;;;;;;8.38;5.85;;;23.20;99.90;;;;;;5148575;28;20457;-78
2023/08/13 04:19:44;;;;;;;5.18;4.68;;;23.20;99.90;;;;;;5166014;28;20355;-78
2023/08/13 04:22:15;;;;;;;7.20;5.30;;;23.30;99.90;;;;;;5165908;28;20579;-77
2023/08/13 04:24:51;;;;;;;6.35;4.68;;;23.30;99.90;;;;;;5165921;28;20433;-76
2023/08/13 04:27:21;;;;;;;9.02;5.80;;;23.40;99.90;;;;;;5165625;28;20038;-78
2023/08/13 04:29:52;;;;;;;9.95;5.22;;;23.40;99.90;;;;;;5165417;28;20742;-77
2023/08/13 04:32:23;;;;;;;6.93;5.25;;;23.40;99.90;;;;;;5165944;28;20046;-79
2023/08/13 04:34:54;;;;;;;6.88;4.90;;;23.40;99.90;;;;;;5165871;28;20042;-78
2023/08/13 04:37:25;;;;;;;9.48;5.35;;;23.50;99.90;;;;;;5128806;28;20039;-78
2023/08/13 04:39:57;;;;;;;11.57;6.10;;;23.40;99.90;;;;;;5145619;28;20037;-76
2023/08/13 04:42:28;;;;;;;9.07;5.03;;;23.60;99.90;;;;;;5145588;28;20018;-78
2023/08/13 04:44:59;;;;;;;8.32;5.97;;;23.60;99.90;;;;;;5128505;28;20038;-77
2023/08/13 04:47:30;;;;;;;5.88;4.97;;;23.60;99.90;;;;;;5145515;28;20105;-79
2023/08/13 04:50:01;;;;;;;8.70;5.35;;;23.60;99.90;;;;;;5129674;28;20125;-77
2023/08/13 04:52:32;;;;;;;7.25;5.63;;;23.60;99.90;;;;;;5132205;28;20022;-77
2023/08/13 04:55:03;;;;;;;7.28;5.20;;;23.60;99.90;;;;;;5149719;28;20106;-77
2023/08/13 04:57:34;;;;;;;10.48;5.57;;;23.60;99.90;;;;;;5142982;28;20042;-78
2023/08/13 05:00:06;;;;;;;8.10;5.75;;;23.70;99.90;;;;;;5149209;28;20027;-78
2023/08/13 05:02:37;;;;;;;9.00;5.68;;;23.70;99.90;;;;;;5149404;28;20042;-77
2023/08/13 05:05:08;;;;;;;9.13;5.28;;;23.70;99.90;;;;;;5132030;28;20026;-77
2023/08/13 05:07:39;;;;;;;8.30;5.60;;;23.70;99.90;;;;;;5132105;28;20034;-77
2023/08/13 05:10:09;;;;;;;9.23;5.20;;;23.80;99.90;;;;;;5149104;28;20121;-77
2023/08/13 05:12:40;;;;;;;6.22;5.63;;;23.90;99.90;;;;;;5132011;28;20038;-77
2023/08/13 05:15:11;;;;;;;10.55;5.75;;;24.00;99.90;;;;;;5149130;28;20038;-77
2023/08/13 05:17:42;;;;;;;9.95;5.43;;;24.00;99.90;;;;;;5148622;28;20105;-77
2023/08/13 05:20:13;;;;;;;18.48;5.28;;;23.90;99.90;;;;;;5148922;28;20030;-79
2023/08/13 05:22:44;;;;;;;10.65;6.35;;;23.90;99.90;;;;;;5148880;28;20096;-77
2023/08/13 05:25:15;;;;;;;7.68;5.43;;;24.00;99.90;;;;;;5160738;28;20023;-77
2023/08/13 05:27:45;;;;;;;8.95;5.03;;;24.10;99.90;;;;;;5167455;28;20065;-80
2023/08/13 05:30:16;;;;;;;9.13;5.50;;;24.10;99.90;;;;;;5141400;28;20057;-79
2023/08/13 05:32:47;;;;;;;9.15;5.85;;;24.10;99.90;;;;;;5151430;28;20046;-78
2023/08/13 05:35:18;;;;;;;8.18;5.63;;;24.10;99.90;;;;;;5168881;28;20014;-79
2023/08/13 05:37:49;;;;;;;11.25;5.88;;;24.20;99.90;;;;;;5151187;28;20042;-77
2023/08/13 05:40:20;;;;;;;9.15;5.93;;;24.30;99.90;;;;;;5168588;28;20027;-79
2023/08/13 05:42:51;;;;;;;8.32;5.30;;;24.40;99.90;;;;;;5168325;28;20034;-77
2023/08/13 05:45:22;;;;;;;8.77;5.28;;;24.20;99.90;;;;;;5151238;28;20069;-79
2023/08/13 05:47:53;;;;;;;12.55;5.28;;;24.30;99.90;;;;;;5168488;28;20034;-78
2023/08/13 05:50:24;;;;;;;6.55;5.35;;;24.30;99.90;;;;;;5150683;28;20036;-78
2023/08/13 05:52:55;;;;;;;8.98;5.30;;;24.50;99.90;;;;;;5151362;28;20493;-77
2023/08/13 05:55:26;;;;;;;6.25;5.65;;;24.50;99.90;;;;;;5150683;28;20026;-77
2023/08/13 05:57:57;;;;;;;7.78;5.68;;;24.60;99.90;;;;;;5167984;28;20042;-77
2023/08/13 06:00:29;;;;;;;6.95;5.25;;;24.60;99.90;;;;;;5150761;28;20121;-78
2023/08/13 06:03:00;;;;;;;11.27;5.03;;;24.40;99.90;;;;;;5168338;28;20501;-78
2023/08/13 06:05:31;;;;;;;10.75;5.18;;;24.50;99.90;;;;;;5168320;28;20030;-78
2023/08/13 06:08:02;;;;;;;9.68;4.95;;;24.70;99.90;;;;;;5150675;28;20022;-78
2023/08/13 06:10:32;;;;;;;7.82;5.13;;;24.60;99.90;;;;;;5150155;28;20080;-78
2023/08/13 06:13:03;;;;;;;7.63;5.32;;;24.60;99.90;;;;;;5150665;28;20375;-77
2023/08/13 06:15:34;;;;;;;7.40;4.55;;;24.60;99.90;;;;;;5150312;28;20545;-78
2023/08/13 06:18:05;;;;;;;7.30;5.07;;;24.70;99.90;;;;;;5150479;28;20160;-77
2023/08/13 06:20:36;;;;;;;9.00;4.82;;;24.70;99.90;;;;;;5149876;28;20046;-76
2023/08/13 06:23:07;;;;;;;8.07;4.72;;;24.80;99.90;;;;;;5167362;28;20073;-77
2023/08/13 06:25:39;;;;;;;8.10;5.00;;;24.80;99.90;;;;;;5167731;28;20105;-79
2023/08/13 06:28:11;;;;;;;11.65;4.88;;;24.90;99.90;;;;;;5149963;28;20045;-77
2023/08/13 06:30:44;;;;;;;8.18;5.28;;;25.00;99.90;;;;;;5167602;28;20046;-77
2023/08/13 06:33:15;;;;;;;9.80;5.43;;;25.00;99.90;;;;;;5167601;28;20033;-77
2023/08/13 06:35:47;;;;;;;9.85;5.30;;;24.90;99.90;;;;;;5167618;28;20035;-78
2023/08/13 06:38:18;;;;;;;8.77;4.93;;;25.00;99.90;;;;;;5167516;28;20109;-76
2023/08/13 06:40:48;;;;;;;9.93;5.03;;;25.00;99.90;;;;;;5166141;28;20483;-76
2023/08/13 06:43:19;;;;;;;10.48;5.43;;;24.90;99.90;;;;;;5147355;28;20105;-77
2023/08/13 06:45:50;;;;;;;6.97;4.68;;;25.20;99.90;;;;;;5147608;28;20070;-76
2023/08/13 06:48:21;;;;;;;8.02;4.70;;;25.10;99.90;;;;;;5119939;29;20050;-77
2023/08/13 06:50:56;;;;;;;12.85;5.40;;;25.20;99.90;;;;;;5127611;28;20094;-77
2023/08/13 06:53:26;;;;;;;9.02;4.95;;;25.00;99.90;;;;;;5129963;28;20196;-76
2023/08/13 06:56:00;;;;;;;11.75;5.03;;;25.00;99.90;;;;;;5144500;28;20038;-78
2023/08/13 06:58:31;;;;;;;10.20;4.85;;;25.00;99.90;;;;;;5129548;28;20034;-78
2023/08/13 07:01:03;;;;;;;6.22;5.15;;;24.90;99.90;;;;;;5146844;28;20033;-77
2023/08/13 07:03:34;;;;;;;8.55;4.95;;;25.00;99.90;;;;;;5147021;28;20062;-77
2023/08/13 07:06:05;;;;;;;9.45;4.90;;;25.00;99.90;;;;;;5146784;28;20450;-77
2023/08/13 07:08:36;;;;;;;7.22;5.00;;;25.00;99.90;;;;;;5146523;28;20051;-78
2023/08/13 07:11:06;;;;;;;8.48;5.47;;;25.00;99.90;;;;;;5129180;28;20031;-79
2023/08/13 07:13:37;;;;;;;8.38;4.85;;;25.00;99.90;;;;;;5133069;28;20030;-77
2023/08/13 07:16:10;;;;;;;6.50;5.10;;;24.90;99.90;;;;;;5166793;28;20027;-78
2023/08/13 07:18:42;;;;;;;8.90;5.07;;;25.00;99.90;;;;;;5166821;28;20033;-80
2023/08/13 07:21:13;;;;;;;9.50;4.90;;;25.10;99.90;;;;;;5166955;28;20050;-77
2023/08/13 07:23:43;;;;;;;8.15;5.00;;;25.20;99.90;;;;;;5158711;28;20093;-78
2023/08/13 07:26:14;;;;;;;9.18;5.35;;;25.10;99.90;;;;;;5146714;28;20023;-79
2023/08/13 07:28:45;;;;;;;8.02;5.35;;;25.00;99.90;;;;;;5163877;28;20030;-79
2023/08/13 07:31:19;;;;;;;10.82;5.32;;;25.20;99.90;;;;;;5149097;28;20052;-78
2023/08/13 07:33:51;;;;;;;7.25;5.05;;;25.20;99.90;;;;;;5166714;28;20382;-78
2023/08/13 07:36:22;;;;;;;6.80;5.00;;;25.10;99.90;;;;;;5166721;28;20527;-79
2023/08/13 07:38:53;;;;;;;7.25;4.72;;;25.30;99.90;;;;;;5166533;28;20113;-78
2023/08/13 07:41:24;;;;;;;10.60;5.22;;;25.20;99.90;;;;;;5166417;28;20027;-79
2023/08/13 07:43:55;;;;;;;11.55;5.60;;;25.40;99.90;;;;;;5166516;28;20037;-79
2023/08/13 07:46:26;;;;;;;10.93;5.38;;;25.40;99.90;;;;;;5183306;28;20022;-78
2023/08/13 07:48:57;;;;;;;12.00;5.63;;;25.50;99.90;;;;;;5169125;28;20037;-78
2023/08/13 07:51:28;;;;;;;8.20;5.05;;;25.40;99.90;;;;;;5169073;28;20026;-80
2023/08/13 07:53:59;;;;;;;8.95;5.10;;;25.40;99.90;;;;;;5186635;28;20100;-77
2023/08/13 07:56:30;;;;;;;9.02;5.07;;;25.20;99.90;;;;;;5168988;28;20045;-79
2023/08/13 07:59:00;;;;;;;14.98;5.22;;;25.30;99.90;;;;;;5157488;28;20030;-77
2023/08/13 08:01:31;;;;;;;14.00;5.20;;;25.50;99.90;;;;;;5148732;28;20045;-78
2023/08/13 08:04:06;;;;;;;9.27;5.10;;;25.60;99.90;;;;;;5164561;28;20022;-78
2023/08/13 08:06:37;;;;;;;7.18;5.13;;;25.60;99.90;;;;;;5153977;28;20034;-80
2023/08/13 08:09:08;;;;;;;8.77;5.13;;;25.60;99.90;;;;;;5148669;28;20045;-79
2023/08/13 08:11:39;;;;;;;10.45;5.25;;;25.60;99.90;;;;;;5166172;28;20053;-78
2023/08/13 08:14:09;;;;;;;9.10;5.45;;;25.50;99.90;;;;;;5148115;28;20058;-79
2023/08/13 08:16:40;;;;;;;9.52;5.68;;;25.80;99.90;;;;;;5165755;28;20397;-80
2023/08/13 08:19:13;;;;;;;8.30;4.97;;;25.70;99.90;;;;;;5166035;28;20029;-79
2023/08/13 08:21:43;;;;;;;8.50;5.47;;;25.60;99.90;;;;;;5166360;28;20033;-76
2023/08/13 08:24:14;;;;;;;11.48;6.15;;;25.80;99.90;;;;;;5166485;28;20023;-75
2023/08/13 08:26:45;;;;;;;10.07;6.35;;;25.80;99.90;;;;;;5146823;28;20030;-78
2023/08/13 08:29:16;;;;;;;8.00;5.78;;;25.80;99.90;;;;;;5169626;28;20026;-77
2023/08/13 08:31:47;;;;;;;11.55;5.38;;;25.80;99.90;;;;;;5169947;28;20030;-78
2023/08/13 08:34:18;;;;;;;10.50;5.95;;;25.80;99.90;;;;;;5169718;28;20390;-78
2023/08/13 08:36:49;;;;;;;10.30;5.45;;;25.80;99.90;;;;;;5169614;28;20523;-79
2023/08/13 08:39:20;;;;;;;9.95;5.72;;;25.70;99.90;;;;;;5169847;28;20541;-79
2023/08/13 08:41:55;;;;;;;9.98;5.55;;;25.80;99.90;;;;;;5170263;28;20034;-80
2023/08/13 08:44:28;;;;;;;9.40;6.47;;;25.90;99.90;;;;;;5152324;28;20031;-77
2023/08/13 08:47:00;;;;;;;10.98;6.00;;;26.20;99.90;;;;;;5152465;28;20439;-78
2023/08/13 08:49:34;;;;;;;9.93;6.50;;;26.10;99.90;;;;;;5169770;28;20022;-78
2023/08/13 08:52:06;;;;;;;15.98;6.32;;;26.10;99.90;;;;;;5152133;28;20038;-79
2023/08/13 08:54:39;;;;;;;6.30;5.53;;;26.00;99.90;;;;;;5169659;28;20022;-78
2023/08/13 08:57:10;;;;;;;8.93;6.00;;;26.20;99.90;;;;;;5152063;28;20088;-78
2023/08/13 08:59:42;;;;;;;8.00;6.25;;;26.10;99.90;;;;;;5169342;28;20081;-77
2023/08/13 09:02:13;;;;;;;10.80;7.13;;;26.10;99.90;;;;;;5169409;28;20034;-78
2023/08/13 09:04:44;;;;;;;13.18;6.65;;;26.20;99.90;;;;;;5152111;28;20061;-78
2023/08/13 09:07:15;;;;;;;14.15;6.60;;;26.20;99.90;;;;;;5152035;28;20689;-78
2023/08/13 09:09:49;;;;;;;11.25;6.47;;;26.40;99.90;;;;;;5169326;28;20019;-78
2023/08/13 09:12:20;;;;;;;11.98;6.25;;;26.50;99.90;;;;;;5158439;28;20034;-79
2023/08/13 09:14:54;;;;;;;10.75;6.68;;;26.40;99.90;;;;;;5169298;28;20042;-79
2023/08/13 09:17:25;;;;;;;8.95;6.78;;;26.70;99.90;;;;;;5169155;28;20073;-78
2023/08/13 09:19:56;;;;;;;10.50;6.13;;;26.50;99.90;;;;;;5151685;28;20486;-79
2023/08/13 09:22:32;;;;;;;7.57;5.90;;;26.70;99.90;;;;;;5151890;28;20051;-79
2023/08/13 09:25:03;;;;;;;9.57;5.90;;;26.50;99.90;;;;;;5152064;28;20479;-77
2023/08/13 09:27:35;;;;;;;9.43;6.68;;;26.50;99.90;;;;;;5151566;28;20030;-76
2023/08/13 09:30:11;;;;;;;9.30;6.32;;;26.70;99.90;;;;;;5169182;28;20050;-77
2023/08/13 09:32:46;;;;;;;10.95;7.03;;;26.90;99.90;;;;;;5169875;28;20038;-76
2023/08/13 09:35:17;;;;;;;11.68;7.20;;;26.80;99.90;;;;;;5167532;28;20146;-76
2023/08/13 09:37:48;;;;;;;11.35;7.55;;;26.80;99.90;;;;;;5164840;28;20103;-76
2023/08/13 09:40:19;;;;;;;10.05;7.07;;;26.70;99.90;;;;;;5151269;28;20027;-76
2023/08/13 09:42:53;;;;;;;10.40;6.43;;;26.60;99.90;;;;;;5146660;28;20037;-78
2023/08/13 09:45:30;;;;;;;15.75;6.40;;;26.50;99.90;;;;;;5151084;28;20102;-75
2023/08/13 09:48:06;;;;;;;10.43;6.45;;;26.40;99.90;;;;;;5161631;28;20027;-77
2023/08/13 09:50:40;;;;;;;9.75;6.50;;;26.50;99.90;;;;;;5143922;28;20022;-76
2023/08/13 09:53:14;;;;;;;14.80;6.50;;;26.40;99.90;;;;;;5135805;28;20045;-79
2023/08/13 09:55:52;;;;;;;10.98;6.32;;;26.30;99.90;;;;;;5142758;28;20023;-79
2023/08/13 09:58:24;;;;;;;9.00;6.00;;;26.30;99.90;;;;;;5150645;28;20054;-78
2023/08/13 10:00:55;;;;;;;10.48;6.30;;;26.10;99.90;;;;;;5144801;28;20034;-75
2023/08/13 10:03:27;;;;;;;14.90;6.53;;;26.00;99.90;;;;;;5166072;28;20038;-77
2023/08/13 10:05:58;;;;;;;13.23;6.22;;;26.00;99.90;;;;;;5168287;28;20038;-76
2023/08/13 10:08:29;;;;;;;12.95;6.80;;;26.00;99.90;;;;;;5150802;28;20513;-75
2023/08/13 10:11:00;;;;;;;13.98;6.30;;;25.90;99.90;;;;;;5168001;28;20068;-76
2023/08/13 10:13:31;;;;;;;11.65;6.68;;;26.00;99.90;;;;;;5161510;28;20038;-77
2023/08/13 10:16:02;;;;;;;13.43;7.22;;;26.10;99.90;;;;;;5139451;28;20035;-80
2023/08/13 10:18:34;;;;;;;14.20;6.05;;;26.10;99.90;;;;;;5150292;28;20129;-76
2023/08/13 10:21:05;;;;;;;10.23;5.70;;;26.20;99.90;;;;;;5150827;28;20026;-77
2023/08/13 10:23:35;;;;;;;8.98;6.10;;;26.20;99.90;;;;;;5168006;28;20068;-76
2023/08/13 10:26:09;;;;;;;14.15;6.70;;;26.30;99.90;;;;;;5167522;28;20105;-75
2023/08/13 10:28:40;;;;;;;11.25;6.55;;;26.00;99.90;;;;;;5167704;28;20367;-76
2023/08/13 10:31:23;;;;;;;11.23;6.20;;;26.10;99.90;;;;;;5147589;28;20100;-79
2023/08/13 10:34:11;;;;;;;11.32;6.70;;;26.20;99.90;;;;;;5152254;28;20101;-76
2023/08/13 10:36:52;;;;;;;9.95;6.72;;;26.20;99.90;;;;;;5156701;28;20034;-80
2023/08/13 10:39:42;;;;;;;11.25;6.75;;;26.30;99.90;;;;;;5138952;28;20026;-78
2023/08/13 10:42:28;;;;;;;17.17;6.80;;;26.20;99.90;;;;;;5166748;28;20026;-78
2023/08/13 10:45:10;;;;;;;14.60;7.20;;;26.10;99.90;;;;;;5151044;28;20081;-83
2023/08/13 10:47:48;;;;;;;9.38;6.50;;;26.30;99.90;;;;;;5144172;28;20144;-76
2023/08/13 10:50:25;;;;;;;14.83;6.30;;;26.10;99.90;;;;;;5145708;28;20388;-80
2023/08/13 10:53:26;;;;;;;13.48;7.80;;;26.20;99.90;;;;;;5157059;28;20035;-80
2023/08/13 10:56:00;;;;;;;9.48;6.18;;;26.10;99.90;;;;;;5147508;28;20049;-77
2023/08/13 10:58:37;;;;;;;14.05;6.82;;;26.10;99.90;;;;;;5147118;28;20089;-75
2023/08/13 11:01:13;;;;;;;9.40;6.40;;;26.10;99.90;;;;;;5129450;28;20029;-76
2023/08/13 11:03:45;;;;;;;11.75;6.45;;;26.00;99.90;;;;;;5129522;28;20596;-76
2023/08/13 11:06:17;;;;;;;9.35;6.55;;;26.10;99.90;;;;;;5146306;28;20030;-75
2023/08/13 11:08:48;;;;;;;13.98;6.75;;;26.00;99.90;;;;;;5129061;28;20034;-76
2023/08/13 11:11:20;;;;;;;13.05;6.40;;;26.00;99.90;;;;;;5128720;28;20023;-75
2023/08/13 11:13:51;;;;;;;12.52;7.43;;;25.90;99.90;;;;;;5130110;28;20438;-77
2023/08/13 11:16:27;;;;;;;12.65;6.45;;;25.90;99.90;;;;;;5162758;28;20034;-77
2023/08/13 11:18:59;;;;;;;14.65;6.70;;;25.80;99.90;;;;;;5149933;28;20026;-77
2023/08/13 11:21:30;;;;;;;9.45;6.18;;;25.90;99.90;;;;;;5165966;28;20029;-77
2023/08/13 11:24:01;;;;;;;10.98;6.28;;;26.00;99.90;;;;;;5149099;28;20034;-77
2023/08/13 11:26:34;;;;;;;17.77;6.72;;;26.10;99.90;;;;;;5149465;28;20586;-76
2023/08/13 11:29:05;;;;;;;12.07;6.07;;;26.10;99.90;;;;;;5166730;28;20022;-76
2023/08/13 11:31:38;;;;;;;13.40;6.28;;;26.00;99.90;;;;;;5149822;28;20116;-77
2023/08/13 11:34:09;;;;;;;14.32;6.22;;;26.20;99.90;;;;;;5148960;28;20717;-77
2023/08/13 11:36:40;;;;;;;10.30;6.28;;;26.40;99.90;;;;;;5148170;28;20030;-78
2023/08/13 11:39:12;;;;;;;14.23;6.45;;;26.20;99.90;;;;;;5147954;28;20038;-77
2023/08/13 11:41:43;;;;;;;10.45;7.13;;;26.10;99.90;;;;;;5146430;28;20019;-77
2023/08/13 11:44:14;;;;;;;12.02;6.30;;;25.70;99.90;;;;;;5165293;28;20038;-77
2023/08/13 11:46:56;;;;;;;15.73;6.32;;;25.60;99.90;;;;;;5164912;28;20027;-78
2023/08/13 11:49:28;;;;;;;11.02;6.10;;;25.50;99.90;;;;;;5148192;28;20114;-76
2023/08/13 11:51:59;;;;;;;12.50;6.47;;;25.70;99.90;;;;;;5165558;28;20478;-77
2023/08/13 11:54:29;;;;;;;9.68;6.20;;;25.70;99.90;;;;;;5166020;28;20073;-76
2023/08/13 11:57:02;;;;;;;12.82;6.50;;;25.80;99.90;;;;;;5148369;28;20035;-76
2023/08/13 11:59:33;;;;;;;12.05;6.68;;;26.00;99.90;;;;;;5165598;28;20618;-76
2023/08/13 12:02:05;;;;;;;10.70;6.00;;;25.90;99.90;;;;;;5166056;28;20109;-76
2023/08/13 12:04:36;;;;;;;12.60;7.15;;;26.00;99.90;;;;;;5166086;28;20058;-78
2023/08/13 12:07:09;;;;;;;10.13;6.43;;;26.00;99.90;;;;;;5166211;28;20482;-76
2023/08/13 12:09:40;;;;;;;9.77;6.70;;;25.70;99.90;;;;;;5166105;28;20023;-76
2023/08/13 12:12:11;;;;;;;15.60;6.32;;;25.70;99.90;;;;;;5165974;28;20032;-76
2023/08/13 12:14:43;;;;;;;14.13;7.40;;;25.60;99.90;;;;;;5148390;28;20023;-76
2023/08/13 12:17:14;;;;;;;13.82;7.43;;;25.80;99.90;;;;;;5165730;28;20045;-76
2023/08/13 12:19:45;;;;;;;13.15;8.27;;;26.10;99.90;;;;;;5165972;28;20022;-76
2023/08/13 12:22:16;;;;;;;11.50;7.45;;;26.10;99.90;;;;;;5166019;28;20034;-76
2023/08/13 12:24:46;;;;;;;12.02;7.10;;;26.00;99.90;;;;;;5165952;28;20027;-79
2023/08/13 12:27:17;;;;;;;13.73;6.95;;;25.70;99.90;;;;;;5630010;23;20070;-78
2023/08/13 12:29:48;;;;;;;13.50;7.03;;;25.20;99.90;;;;;;5127608;28;20030;-76
2023/08/13 12:32:19;;;;;;;14.77;7.00;;;25.50;99.90;;;;;;5128191;28;20125;-76
2023/08/13 12:34:50;;;;;;;11.70;7.63;;;25.90;99.90;;;;;;5144035;28;20371;-76
2023/08/13 12:37:21;;;;;;;15.00;7.57;;;26.10;99.90;;;;;;5145102;28;20027;-77
2023/08/13 12:39:52;;;;;;;12.73;7.45;;;26.30;99.90;;;;;;5145180;28;20023;-76
2023/08/13 12:42:23;;;;;;;14.68;8.18;;;26.30;99.90;;;;;;5145113;28;20022;-76
2023/08/13 12:44:54;;;;;;;13.30;6.55;;;26.20;99.90;;;;;;5143936;28;20085;-76
2023/08/13 12:47:24;;;;;;;13.60;7.50;;;26.00;99.90;;;;;;5145020;28;20110;-76
2023/08/13 12:49:55;;;;;;;14.52;7.07;;;25.80;99.90;;;;;;5145634;28;20501;-77
2023/08/13 12:52:26;;;;;;;14.18;7.68;;;25.90;99.90;;;;;;5145593;28;20042;-76
2023/08/13 12:54:57;;;;;;;15.50;7.70;;;26.50;99.90;;;;;;5145618;28;20485;-76
2023/08/13 12:57:28;;;;;;;12.88;7.60;;;26.30;99.90;;;;;;5151354;28;20045;-76
2023/08/13 12:59:59;;;;;;;10.73;7.15;;;26.30;99.90;;;;;;5148125;28;20136;-77
2023/08/13 13:02:30;;;;;;;16.65;7.82;;;26.00;99.90;;;;;;5165624;28;20410;-76
2023/08/13 13:05:00;;;;;;;16.77;8.00;;;26.00;99.90;;;;;;5165731;28;20485;-76
2023/08/13 13:07:31;;;;;;;12.93;7.15;;;25.70;99.90;;;;;;5165736;28;20031;-77